Time;durP1;ratioP1;P1;durP2;ratioP2;P2;SDS_P1;SDS_P2;PMS_P1;PMS_P2;Temp;Humidity;BMP_temperature;BMP_pressure;BME280_temperature;BME280_humidity;BME280_pressure;Samples;Min_cycle;Max_cycle;Signal;HPM_P1;HPM_P2
2023/03/28 00:01:46;;;;;;;3.10;2.90;;;;;;;10.72;100.00;97991.88;5107349;28;20199;-54
2023/03/28 00:08:08;;;;;;;2.57;2.40;;;;;;;10.52;100.00;98005.88;5107790;28;20592;-53
2023/03/28 00:11:02;;;;;;;3.10;2.90;;;;;;;10.52;100.00;97993.75;5106901;28;20190;-52
2023/03/28 00:14:18;;;;;;;3.40;3.20;;;;;;;10.57;100.00;97992.66;5108668;28;20202;-53
2023/03/28 00:17:26;;;;;;;2.60;2.50;;;;;;;10.55;100.00;98010.91;5107715;28;20189;-53
2023/03/28 00:20:29;;;;;;;3.07;2.87;;;;;;;10.51;100.00;97993.81;5109220;28;20520;-52
2023/03/28 00:23:30;;;;;;;3.07;2.87;;;;;;;10.44;100.00;97992.47;5102695;28;20232;-53
2023/03/28 00:29:36;;;;;;;3.00;2.90;;;;;;;10.43;100.00;98014.13;5105925;28;20195;-54
2023/03/28 00:32:22;;;;;;;2.63;2.53;;;;;;;10.55;100.00;98005.72;5106813;28;20197;-54
2023/03/28 00:35:27;;;;;;;2.90;2.20;;;;;;;10.51;100.00;98012.81;5108436;28;20214;-54
2023/03/28 00:38:36;;;;;;;2.37;2.17;;;;;;;10.53;100.00;98020.53;5105735;28;20228;-54
2023/03/28 00:41:38;;;;;;;2.40;2.30;;;;;;;10.50;100.00;98011.13;5106557;28;20202;-53
2023/03/28 00:44:47;;;;;;;1.60;1.50;;;;;;;10.43;100.00;98014.13;5106692;28;20674;-54
2023/03/28 00:47:51;;;;;;;1.80;1.70;;;;;;;10.35;100.00;98014.53;5108845;28;20588;-52
2023/03/28 00:51:02;;;;;;;1.50;1.50;;;;;;;10.30;100.00;98015.69;5104442;28;20658;-53
2023/03/28 00:57:19;;;;;;;1.50;1.40;;;;;;;10.18;100.00;98028.38;4510480;27;18105640;-53
2023/03/28 01:06:57;;;;;;;1.73;1.63;;;;;;;9.82;100.00;98040.53;5143072;27;20189;-53
2023/03/28 01:13:05;;;;;;;2.00;1.80;;;;;;;9.62;99.70;98053.63;5141994;27;20189;-54
2023/03/28 01:16:10;;;;;;;3.13;2.30;;;;;;;9.44;100.00;98069.13;5137806;27;20212;-53
2023/03/28 01:22:10;;;;;;;2.47;2.37;;;;;;;9.28;100.00;98086.28;5140124;27;20204;-53
2023/03/28 01:25:29;;;;;;;3.47;2.50;;;;;;;9.07;100.00;98090.72;5124892;27;20718;-53
2023/03/28 01:28:46;;;;;;;2.80;2.60;;;;;;;9.03;100.00;98090.91;5139527;27;20186;-53
2023/03/28 01:31:54;;;;;;;2.93;2.73;;;;;;;9.04;100.00;98093.44;5142613;27;20268;-52
2023/03/28 01:35:06;;;;;;;2.77;2.60;;;;;;;8.97;100.00;98089.44;5140754;27;20205;-52
2023/03/28 01:38:11;;;;;;;3.00;2.80;;;;;;;8.91;100.00;98078.53;5143149;27;20189;-52
2023/03/28 01:41:07;;;;;;;2.80;2.70;;;;;;;8.76;99.84;98079.22;5141040;27;20189;-52
2023/03/28 01:47:25;;;;;;;2.53;2.43;;;;;;;8.64;98.26;98094.38;5141447;27;20208;-52
2023/03/28 01:50:23;;;;;;;2.23;2.13;;;;;;;8.61;97.87;98099.66;5142990;27;20285;-52
2023/03/28 01:53:39;;;;;;;2.40;2.30;;;;;;;8.54;97.22;98110.34;5142534;27;20574;-52
2023/03/28 01:56:44;;;;;;;2.23;2.13;;;;;;;8.42;96.65;98119.47;5140945;27;20217;-51
2023/03/28 02:03:13;;;;;;;2.60;2.50;;;;;;;8.23;96.74;98139.22;5141280;27;20197;-54
2023/03/28 02:06:27;;;;;;;2.30;2.20;;;;;;;8.20;95.13;98147.09;5140262;27;20249;-52
2023/03/28 02:09:21;;;;;;;2.20;2.10;;;;;;;8.12;93.95;98159.50;5125992;27;20189;-52
2023/03/28 02:12:29;;;;;;;2.40;1.60;;;;;;;8.07;93.42;98163.97;5128076;27;20693;-53
2023/03/28 02:18:42;;;;;;;1.90;1.80;;;;;;;7.96;93.03;98167.84;5109949;27;20262;-53
2023/03/28 02:24:44;;;;;;;1.90;1.80;;;;;;;7.86;92.91;98188.94;5127700;27;20205;-54
2023/03/28 02:44:09;;;;;;;3.67;2.70;;;;;;;7.51;94.87;98208.34;5124168;27;20205;-53
2023/03/28 02:46:59;;;;;;;6.20;3.03;;;;;;;7.52;93.24;98202.28;5124213;27;20182;-52
2023/03/28 02:50:25;;;;;;;3.33;3.03;;;;;;;7.51;92.39;98205.78;5126804;27;20206;-52
2023/03/28 02:53:32;;;;;;;3.53;3.33;;;;;;;7.41;93.12;98223.34;5128026;27;20194;-52
2023/03/28 02:56:17;;;;;;;3.30;3.10;;;;;;;7.27;93.07;98208.34;5125888;27;20217;-55
2023/03/28 03:05:20;;;;;;;4.20;3.90;;;;;;;7.10;94.49;98236.50;5121817;27;20293;-51
2023/03/28 03:08:17;;;;;;;4.23;3.90;;;;;;;7.05;93.24;98243.56;5126794;27;20587;-53
2023/03/28 03:11:14;;;;;;;3.97;3.47;;;;;;;7.02;94.80;98255.72;5125962;27;20682;-52
2023/03/28 03:14:14;;;;;;;3.53;3.33;;;;;;;6.95;93.61;98265.41;5126089;27;20593;-51
2023/03/28 03:17:04;;;;;;;3.50;3.30;;;;;;;6.89;93.59;98252.69;5125655;27;20300;-52
2023/03/28 03:20:04;;;;;;;4.63;4.30;;;;;;;6.78;93.09;98265.13;5126051;27;20202;-52
2023/03/28 03:23:06;;;;;;;3.97;3.77;;;;;;;6.79;92.94;98269.38;5130328;27;20285;-52
2023/03/28 03:29:16;;;;;;;4.13;3.83;;;;;;;6.64;92.80;98264.75;5126536;27;20217;-52
2023/03/28 03:32:03;;;;;;;3.97;3.67;;;;;;;6.57;93.75;98267.53;5125795;27;20190;-52
2023/03/28 03:35:23;;;;;;;4.03;3.83;;;;;;;6.43;93.98;98259.38;5126647;27;20281;-52
2023/03/28 03:44:24;;;;;;;4.60;4.20;;;;;;;6.32;93.20;98302.69;5125001;27;20194;-52
2023/03/28 03:47:18;;;;;;;4.57;4.00;;;;;;;6.33;92.91;98290.66;5125782;27;21319;-52
2023/03/28 03:53:03;;;;;;;4.30;4.00;;;;;;;6.28;92.70;98290.81;5125336;27;20237;-53
2023/03/28 03:55:58;;;;;;;4.17;3.63;;;;;;;6.25;92.12;98298.63;5125096;27;20694;-53
2023/03/28 03:59:09;;;;;;;4.00;3.70;;;;;;;6.16;91.41;98298.91;5124300;27;20204;-51
2023/03/28 04:02:03;;;;;;;3.90;3.30;;;;;;;6.09;91.70;98300.00;5127010;27;20662;-52
2023/03/28 04:05:06;;;;;;;4.23;3.90;;;;;;;6.08;92.05;98318.91;5126118;27;20199;-53
2023/03/28 04:07:56;;;;;;;3.63;3.43;;;;;;;6.04;91.18;98314.75;5129999;27;20680;-52
2023/03/28 04:11:06;;;;;;;4.90;3.97;;;;;;;6.13;90.55;98314.47;5129755;27;20290;-50
2023/03/28 04:14:26;;;;;;;;;;;;;;;;;;;;;
2023/03/28 04:17:22;;;;;;;3.37;3.17;;;;;;;6.27;89.36;98319.19;5117967;27;20697;-52
2023/03/28 04:20:12;;;;;;;3.60;3.37;;;;;;;6.22;88.80;98352.81;5128328;27;20204;-51
2023/03/28 04:23:12;;;;;;;5.00;3.43;;;;;;;6.22;88.43;98347.66;5129965;27;20212;-53
2023/03/28 04:26:08;;;;;;;3.60;3.30;;;;;;;6.18;87.85;98354.66;5129907;27;20190;-53
2023/03/28 04:29:12;;;;;;;2.37;2.17;;;;;;;6.15;88.12;98371.94;5128890;27;20208;-52
2023/03/28 04:31:48;;;;;;;4.30;3.13;;;;;;;6.21;90.38;98373.50;5128833;27;20200;-53
2023/03/28 04:34:28;;;;;;;7.63;3.30;;;;;;;6.13;87.99;98363.41;5125768;27;20292;-52
2023/03/28 04:37:04;;;;;;;2.97;2.77;;;;;;;6.18;88.71;98377.84;5127855;27;20616;-50
2023/03/28 04:39:36;;;;;;;2.63;2.47;;;;;;;6.28;87.20;98406.75;5126966;27;20214;-50
2023/03/28 04:42:07;;;;;;;3.90;2.60;;;;;;;6.30;87.13;98410.13;5115165;27;20604;-50
2023/03/28 04:44:39;;;;;;;2.17;2.07;;;;;;;6.34;87.08;98419.44;5129001;27;20226;-50
2023/03/28 04:47:10;;;;;;;2.40;2.20;;;;;;;6.33;85.74;98417.75;5128539;27;20660;-51
2023/03/28 04:49:47;;;;;;;2.60;2.03;;;;;;;6.40;86.33;98423.59;5128625;27;20749;-51
2023/03/28 04:52:25;;;;;;;4.10;1.80;;;;;;;6.38;85.21;98412.47;5128529;27;20221;-50
2023/03/28 04:54:56;;;;;;;7.50;2.57;;;;;;;6.36;85.45;98422.84;5127946;28;20681;-51
2023/03/28 04:57:26;;;;;;;3.00;1.87;;;;;;;6.38;83.83;98426.22;5127717;28;20720;-51
2023/03/28 05:00:02;;;;;;;1.80;1.70;;;;;;;6.48;83.81;98426.78;5128157;28;20197;-51
2023/03/28 05:02:35;;;;;;;1.57;1.47;;;;;;;6.57;82.78;98429.94;5127182;28;20239;-50
2023/03/28 05:05:24;;;;;;;1.77;1.67;;;;;;;6.67;81.88;98443.38;5127629;28;20197;-52
2023/03/28 05:07:58;;;;;;;1.93;1.83;;;;;;;6.79;82.46;98457.63;5126598;27;20193;-49
2023/03/28 05:10:34;;;;;;;1.80;1.70;;;;;;;6.85;81.79;98422.19;5128986;28;20217;-48
2023/03/28 05:13:25;;;;;;;2.17;1.67;;;;;;;6.99;81.11;98449.31;5126216;28;20233;-49
2023/03/28 05:16:05;;;;;;;2.13;1.93;;;;;;;7.23;81.02;98469.97;5127967;27;20225;-48
2023/03/28 05:18:41;;;;;;;1.60;1.50;;;;;;;7.66;78.51;98453.09;5121397;27;20755;-49
2023/03/28 05:21:22;;;;;;;1.60;1.50;;;;;;;8.06;73.92;98465.47;5108890;28;20199;-50
2023/03/28 05:27:16;;;;;;;2.83;1.90;;;;;;;7.99;72.92;98479.50;5108775;28;20264;-48
2023/03/28 05:29:59;;;;;;;1.70;1.60;;;;;;;8.30;72.23;98487.00;5127071;28;20649;-49
2023/03/28 05:32:55;;;;;;;5.40;2.10;;;;;;;8.31;71.91;98489.59;5129159;28;20681;-48
2023/03/28 05:38:20;;;;;;;9.70;1.90;;;;;;;8.32;70.84;98500.75;5129918;28;20214;-50
2023/03/28 05:41:10;;;;;;;2.77;1.40;;;;;;;7.96;70.80;98505.44;5129651;27;20201;-50
2023/03/28 05:44:10;;;;;;;2.60;1.73;;;;;;;7.70;71.82;98521.81;5133795;27;20198;-50
2023/03/28 05:46:51;;;;;;;1.60;1.50;;;;;;;7.79;71.04;98516.34;5133331;27;20259;-49
2023/03/28 05:52:34;;;;;;;1.90;1.80;;;;;;;8.23;68.85;98521.75;5132412;27;20190;-48
2023/03/28 05:58:35;;;;;;;1.43;1.33;;;;;;;8.46;68.13;98542.50;5132480;27;20189;-48
2023/03/28 06:01:49;;;;;;;;;;;;;;;;;;;;;
2023/03/28 06:04:57;;;;;;;;;;;;;;;;;;;;;
2023/03/28 06:08:00;;;;;;;1.47;1.37;;;;;;;10.15;63.49;98536.66;5131357;27;20194;-48
2023/03/28 06:11:01;;;;;;;1.73;1.63;;;;;;;11.26;60.69;98554.22;5133518;27;20635;-49
2023/03/28 06:14:00;;;;;;;2.53;1.60;;;;;;;12.67;55.27;98543.69;5133282;27;20705;-51
2023/03/28 06:17:03;;;;;;;2.57;1.67;;;;;;;12.75;52.91;98533.72;5133441;27;20214;-52
2023/03/28 06:20:14;;;;;;;1.97;1.80;;;;;;;12.19;53.74;98534.91;5132760;27;20665;-51
2023/03/28 06:23:02;;;;;;;2.53;1.97;;;;;;;11.78;54.69;98528.34;5127887;27;20571;-51
2023/03/28 06:26:01;;;;;;;2.00;1.90;;;;;;;11.38;56.37;98519.84;5131518;27;20288;-50
2023/03/28 06:29:18;;;;;;;;;;;;;;;;;;;;;
2023/03/28 06:32:19;;;;;;;3.43;1.90;;;;;;;11.61;54.86;98514.41;5130338;27;20564;-51
2023/03/28 06:35:12;;;;;;;2.47;2.20;;;;;;;11.99;53.43;98535.06;5131890;27;20201;-48
2023/03/28 06:38:01;;;;;;;13.10;3.33;;;;;;;11.68;52.34;98519.28;5132153;27;20221;-52
2023/03/28 06:44:00;;;;;;;3.60;3.30;;;;;;;13.58;46.66;98575.22;5131033;27;20198;-50
2023/03/28 06:47:13;;;;;;;3.83;3.53;;;;;;;15.05;43.22;98562.19;5132720;27;20693;-50
2023/03/28 06:53:22;;;;;;;11.00;3.63;;;;;;;15.75;38.41;98605.66;5131426;27;20202;-49
2023/03/28 07:01:53;;;;;;;10.90;4.03;;;;;;;16.28;36.99;98619.66;5129245;27;20658;-47
2023/03/28 07:04:29;;;;;;;7.70;5.43;;;;;;;16.98;35.55;98610.50;5110492;27;20222;-47
2023/03/28 07:07:09;;;;;;;10.93;3.67;;;;;;;17.39;34.54;98602.34;5110358;28;20221;-46
2023/03/28 07:10:04;;;;;;;6.17;3.33;;;;;;;16.83;35.31;98618.56;5110773;28;20273;-47
2023/03/28 07:15:54;;;;;;;4.87;2.80;;;;;;;16.79;35.39;98619.75;5110323;27;20677;-46
2023/03/28 07:18:46;;;;;;;;;;;;;;;;;;;;;
2023/03/28 07:21:30;;;;;;;11.43;8.63;;;;;;;15.87;37.27;98591.78;5110872;27;20222;-48
2023/03/28 07:24:23;;;;;;;7.93;5.07;;;;;;;15.07;37.65;98602.13;5123602;27;20225;-47
2023/03/28 07:27:02;;;;;;;7.23;3.50;;;;;;;14.64;38.58;98602.13;5125145;27;20213;-49
2023/03/28 07:29:40;;;;;;;13.77;4.30;;;;;;;14.16;38.90;98587.53;5125245;27;20325;-49
2023/03/28 07:32:21;;;;;;;4.30;3.40;;;;;;;14.65;38.78;98601.19;5125629;27;20218;-50
2023/03/28 07:35:02;;;;;;;8.03;3.27;;;;;;;15.26;36.98;98616.56;5125189;27;20712;-50
2023/03/28 07:37:58;;;;;;;4.97;3.27;;;;;;;15.21;36.60;98608.19;5125192;27;20232;-49
2023/03/28 07:40:59;;;;;;;5.40;4.90;;;;;;;15.02;37.10;98620.69;5124860;27;20243;-48
2023/03/28 07:43:39;;;;;;;4.40;4.10;;;;;;;15.79;35.70;98612.41;5117185;27;20221;-50
2023/03/28 07:46:23;;;;;;;5.00;3.30;;;;;;;16.20;34.93;98614.91;5126272;27;20217;-47
2023/03/28 07:49:10;;;;;;;12.43;5.80;;;;;;;16.53;34.18;98616.22;5123981;27;20621;-47
2023/03/28 08:00:54;;;;;;;3.70;3.50;;;;;;;18.12;31.11;98646.94;5123917;27;20672;-46
2023/03/28 08:03:46;;;;;;;5.40;3.20;;;;;;;18.81;30.29;98637.41;5122685;27;20201;-47
2023/03/28 08:06:47;;;;;;;3.28;3.08;;;;;;;19.75;29.58;98652.03;5125904;27;20255;-48
2023/03/28 08:09:18;;;;;;;8.90;3.42;;;;;;;18.81;29.74;98644.44;5123537;27;20208;-46
2023/03/28 08:12:12;;;;;;;3.42;3.22;;;;;;;18.42;29.94;98653.50;5126462;27;20186;-47
2023/03/28 08:14:56;;;;;;;7.47;2.85;;;;;;;17.22;31.31;98644.69;5120766;27;20229;-47
2023/03/28 08:17:33;;;;;;;4.43;3.07;;;;;;;16.96;31.66;98656.13;5123164;27;20209;-47
2023/03/28 08:20:11;;;;;;;9.33;3.20;;;;;;;16.66;31.90;98646.78;5126702;27;20246;-47
2023/03/28 08:22:42;;;;;;;4.70;3.63;;;;;;;15.83;33.72;98654.88;5129586;27;20212;-46
2023/03/28 08:32:03;;;;;;;8.33;4.07;;;;;;;12.71;39.46;98672.78;5123922;27;20280;-49
2023/03/28 08:35:29;;;;;;;7.67;3.50;;;;;;;12.08;41.09;98688.06;5125016;27;20717;-47
2023/03/28 08:45:09;;;;;;;3.90;3.37;;;;;;;10.93;43.62;98675.19;5124454;27;20220;-46
2023/03/28 08:48:03;;;;;;;8.00;3.37;;;;;;;11.01;42.86;98694.69;5125675;27;20186;-46
2023/03/28 08:50:51;;;;;;;7.60;3.00;;;;;;;11.29;43.11;98705.53;5129236;27;20197;-46
2023/03/28 08:53:58;;;;;;;3.60;3.40;;;;;;;11.55;42.03;98691.38;5129764;27;20193;-46
2023/03/28 08:56:52;;;;;;;3.73;3.33;;;;;;;11.55;42.48;98700.94;5128777;28;20233;-49
2023/03/28 08:59:42;;;;;;;3.40;3.10;;;;;;;11.56;41.77;98708.66;5130048;28;20201;-49
2023/03/28 09:06:03;;;;;;;3.57;3.37;;;;;;;11.30;41.78;98701.19;5125780;28;20193;-49
2023/03/28 09:12:33;;;;;;;2.77;2.57;;;;;;;11.24;41.45;98688.50;5127877;28;20202;-49
2023/03/28 09:15:29;;;;;;;5.37;2.90;;;;;;;11.40;41.78;98692.06;5108981;27;20272;-49
2023/03/28 09:18:31;;;;;;;2.80;2.60;;;;;;;11.47;41.60;98683.09;5123347;27;20688;-49
2023/03/28 09:21:17;;;;;;;8.63;2.50;;;;;;;11.55;40.89;98691.38;5131769;27;20610;-50
2023/03/28 09:24:47;;;;;;;5.13;2.60;;;;;;;11.54;40.77;98692.31;5133254;27;20281;-49
2023/03/28 09:27:28;;;;;;;7.03;2.67;;;;;;;11.58;39.77;98716.41;5134028;27;20211;-49
2023/03/28 09:30:33;;;;;;;3.13;2.60;;;;;;;11.61;40.04;98698.91;5133932;27;20670;-49
2023/03/28 09:33:36;;;;;;;2.67;2.10;;;;;;;11.98;39.90;98711.06;5134327;27;20665;-49
2023/03/28 09:43:05;;;;;;;2.30;2.20;;;;;;;12.13;39.12;98737.25;5132324;27;20298;-46
2023/03/28 09:46:07;;;;;;;2.60;2.50;;;;;;;12.00;39.72;98750.84;5132820;27;20194;-47
2023/03/28 09:52:12;;;;;;;2.93;2.67;;;;;;;11.88;39.24;98742.75;5131452;27;20290;-47
2023/03/28 09:54:45;;;;;;;3.87;2.60;;;;;;;11.60;38.98;98738.81;5132561;27;20198;-47
2023/03/28 09:58:02;;;;;;;3.07;2.87;;;;;;;11.46;40.97;98772.38;5132266;27;20221;-47
2023/03/28 10:01:05;;;;;;;3.67;2.70;;;;;;;11.57;40.68;98767.53;5133165;27;20259;-46
2023/03/28 10:04:04;;;;;;;3.33;2.53;;;;;;;11.61;39.39;98763.91;5132919;27;20194;-47
2023/03/28 10:06:58;;;;;;;5.67;2.60;;;;;;;11.35;38.97;98764.19;5129962;27;20276;-46
2023/03/28 10:10:02;;;;;;;3.50;2.60;;;;;;;11.12;39.72;98774.75;5132965;27;20229;-47
2023/03/28 10:12:36;;;;;;;4.27;2.47;;;;;;;11.09;39.60;98811.22;5132570;27;20201;-47
2023/03/28 10:19:07;;;;;;;6.33;3.00;;;;;;;11.24;39.60;98797.59;5130103;27;20321;-50
2023/03/28 10:22:18;;;;;;;2.90;2.53;;;;;;;11.32;39.09;98792.06;5128782;27;20198;-46
2023/03/28 10:28:02;;;;;;;4.43;2.83;;;;;;;11.51;39.70;98793.78;5130856;27;20194;-47
2023/03/28 10:34:17;;;;;;;2.80;2.60;;;;;;;11.48;39.72;98793.94;5123903;27;20230;-50
2023/03/28 10:37:11;;;;;;;6.00;2.60;;;;;;;11.61;39.54;98784.69;5122330;27;20198;-49
2023/03/28 10:43:10;;;;;;;3.23;2.70;;;;;;;11.36;39.12;98804.00;5126014;27;20230;-49
2023/03/28 10:46:17;;;;;;;5.03;2.60;;;;;;;11.18;38.89;98814.28;5127703;27;20202;-49
2023/03/28 10:52:38;;;;;;;4.77;2.60;;;;;;;11.02;37.92;98804.59;5126929;27;20557;-49
2023/03/28 10:58:29;;;;;;;4.80;2.47;;;;;;;11.01;38.73;98805.50;5120643;27;20221;-48
2023/03/28 11:01:34;;;;;;;4.87;2.90;;;;;;;11.02;38.09;98812.41;5122721;27;20585;-48
2023/03/28 11:04:29;;;;;;;3.33;2.57;;;;;;;11.04;38.16;98802.78;5124874;27;20190;-46
2023/03/28 11:07:24;;;;;;;2.70;2.50;;;;;;;11.21;38.43;98792.53;5127964;27;20206;-49
2023/03/28 11:10:12;;;;;;;2.80;2.37;;;;;;;11.36;37.63;98804.00;5126939;27;20193;-49
2023/03/28 11:13:12;;;;;;;4.90;3.10;;;;;;;11.40;37.68;98816.78;5124417;27;20189;-49
2023/03/28 11:16:01;;;;;;;3.27;3.07;;;;;;;11.44;37.95;98810.56;5128596;27;20584;-49
2023/03/28 11:19:07;;;;;;;2.87;2.70;;;;;;;11.30;37.95;98820.69;5127277;27;20685;-49
2023/03/28 11:22:10;;;;;;;3.07;2.80;;;;;;;11.16;38.10;98828.25;5127232;27;20208;-49
2023/03/28 11:24:58;;;;;;;2.50;2.37;;;;;;;11.01;38.64;98828.88;5125976;27;20608;-50
2023/03/28 11:27:49;;;;;;;4.77;3.10;;;;;;;11.17;38.83;98828.16;5125688;27;20198;-48
2023/03/28 11:30:22;;;;;;;3.30;2.43;;;;;;;11.15;37.94;98836.94;5123987;27;20621;-48
2023/03/28 11:33:09;;;;;;;6.60;2.90;;;;;;;11.02;38.63;98859.13;5128811;27;20657;-49
2023/03/28 11:35:45;;;;;;;2.83;2.53;;;;;;;10.95;38.34;98836.94;5126245;27;20201;-50
2023/03/28 11:38:21;;;;;;;2.87;2.67;;;;;;;10.77;37.82;98854.94;5129795;27;20242;-49
2023/03/28 11:41:01;;;;;;;4.57;2.83;;;;;;;10.73;38.75;98848.16;5126312;27;20201;-50
2023/03/28 11:43:43;;;;;;;9.60;3.30;;;;;;;10.78;38.53;98856.63;5125709;27;20205;-50
2023/03/28 11:46:23;;;;;;;3.67;2.57;;;;;;;10.77;38.21;98856.69;5127185;27;20225;-49
2023/03/28 11:49:15;;;;;;;5.20;3.43;;;;;;;10.61;38.54;98853.03;5128004;27;20527;-50
2023/03/28 11:51:57;;;;;;;3.90;3.30;;;;;;;10.69;38.68;98843.19;5123969;27;20190;-48
2023/03/28 11:54:40;;;;;;;2.90;2.80;;;;;;;10.68;38.32;98838.88;5124923;27;20196;-49
2023/03/28 11:57:20;;;;;;;4.43;2.77;;;;;;;10.71;38.11;98842.22;5127266;27;20230;-50
2023/03/28 11:59:57;;;;;;;3.43;2.83;;;;;;;10.69;38.07;98854.41;5127100;27;20249;-50
2023/03/28 12:02:42;;;;;;;3.40;3.07;;;;;;;10.62;38.77;98860.72;5127089;27;20240;-48
2023/03/28 12:05:31;;;;;;;2.97;2.73;;;;;;;10.38;38.60;98844.38;5127388;27;20202;-49
2023/03/28 12:08:09;;;;;;;4.70;3.30;;;;;;;10.47;38.79;98854.41;5125193;27;20665;-51
2023/03/28 12:10:51;;;;;;;5.77;3.60;;;;;;;10.45;39.48;98860.56;5125171;27;20204;-48
2023/03/28 12:13:31;;;;;;;6.37;3.30;;;;;;;10.49;39.32;98849.16;5126510;27;20193;-46
2023/03/28 12:16:07;;;;;;;3.50;3.20;;;;;;;10.40;39.52;98865.06;5128091;27;20225;-47
2023/03/28 12:18:47;;;;;;;4.93;3.03;;;;;;;10.18;39.57;98852.91;5127336;27;20210;-46
2023/03/28 12:21:29;;;;;;;11.13;3.43;;;;;;;10.06;39.67;98858.50;5123684;27;20288;-47
2023/03/28 12:24:10;;;;;;;5.00;3.50;;;;;;;9.88;39.19;98874.75;5127189;27;20190;-46
2023/03/28 12:26:55;;;;;;;3.77;3.03;;;;;;;9.74;39.94;98867.47;5126784;27;20669;-46
2023/03/28 12:29:44;;;;;;;4.87;3.10;;;;;;;9.86;39.81;98863.59;5125767;27;20285;-47
2023/03/28 12:32:33;;;;;;;4.40;3.07;;;;;;;9.84;39.35;98849.84;5126848;27;20704;-48
2023/03/28 12:35:18;;;;;;;4.00;3.70;;;;;;;9.94;39.81;98864.16;5125614;27;20186;-49
2023/03/28 12:38:08;;;;;;;3.43;3.13;;;;;;;10.02;39.81;98869.91;5126169;27;20647;-49
2023/03/28 12:41:02;;;;;;;3.37;3.17;;;;;;;10.11;39.55;98861.81;5125213;27;20635;-48
2023/03/28 12:44:06;;;;;;;3.20;3.00;;;;;;;10.03;39.58;98850.88;5124557;27;20190;-49
2023/03/28 12:46:55;;;;;;;3.83;2.67;;;;;;;10.09;39.40;98868.78;5124488;27;20193;-49
2023/03/28 12:52:55;;;;;;;3.70;3.40;;;;;;;10.01;39.29;98882.94;5123103;27;20309;-50
2023/03/28 12:56:02;;;;;;;4.53;3.63;;;;;;;10.10;39.71;98878.25;5123731;27;20190;-49
2023/03/28 12:59:05;;;;;;;5.63;3.37;;;;;;;10.07;39.42;98878.34;5124655;28;20391;-48
2023/03/28 13:02:09;;;;;;;4.83;3.40;;;;;;;10.13;39.92;98875.56;5125533;28;20221;-48
2023/03/28 13:05:17;;;;;;;4.60;2.80;;;;;;;10.14;40.05;98886.78;5125118;28;20289;-50
2023/03/28 13:08:04;;;;;;;8.73;3.00;;;;;;;10.00;39.38;98889.03;5123410;28;20189;-49
2023/03/28 13:10:53;;;;;;;3.47;3.20;;;;;;;10.03;40.12;98907.06;5125957;27;20784;-49
2023/03/28 13:13:43;;;;;;;6.70;3.70;;;;;;;10.31;41.49;98904.31;5128842;28;20739;-49
2023/03/28 13:16:29;;;;;;;7.83;3.20;;;;;;;10.59;40.07;98901.53;5129193;28;20222;-48
2023/03/28 13:19:10;;;;;;;6.97;3.40;;;;;;;10.78;38.92;98890.38;5128543;28;20990;-49
2023/03/28 13:21:59;;;;;;;2.50;2.40;;;;;;;10.66;37.21;98898.63;5124105;28;20727;-49
2023/03/28 13:24:50;;;;;;;5.40;3.27;;;;;;;10.68;37.32;98899.44;5125781;28;20217;-48
2023/03/28 13:27:45;;;;;;;6.20;3.40;;;;;;;10.57;37.82;98905.94;5123950;27;20209;-47
2023/03/28 13:30:38;;;;;;;7.23;3.40;;;;;;;10.40;37.69;98911.75;5128654;27;20558;-48
2023/03/28 13:39:37;;;;;;;2.83;2.63;;;;;;;10.48;37.28;98907.13;5129582;27;20258;-50
2023/03/28 13:42:33;;;;;;;7.50;2.87;;;;;;;10.62;37.29;98919.56;5108152;28;20198;-49
2023/03/28 13:51:35;;;;;;;3.03;2.83;;;;;;;10.66;37.14;98947.94;5109558;28;20198;-47
2023/03/28 13:54:05;;;;;;;3.00;2.80;;;;;;;10.46;37.53;98925.34;5109248;28;20202;-48
2023/03/28 13:57:05;;;;;;;3.80;3.10;;;;;;;10.38;37.66;98947.31;5107731;28;20663;-48
2023/03/28 14:00:19;;;;;;;3.90;3.20;;;;;;;10.26;37.71;98937.38;5068452;28;20259;-49
2023/03/28 14:03:09;;;;;;;8.90;2.40;;;;;;;10.17;37.94;98938.50;5069287;28;20605;-48
2023/03/28 14:06:06;;;;;;;2.77;2.57;;;;;;;10.16;37.35;98958.41;5071392;28;20207;-50
2023/03/28 14:09:16;;;;;;;2.73;2.53;;;;;;;10.26;37.57;98968.50;5072020;28;20623;-49
2023/03/28 14:12:17;;;;;;;4.83;3.00;;;;;;;10.30;37.61;98965.72;5077532;28;20261;-48
2023/03/28 14:18:07;;;;;;;3.57;2.53;;;;;;;10.21;37.11;98965.22;5071189;28;20204;-48
2023/03/28 14:21:11;;;;;;;4.77;2.80;;;;;;;10.06;36.99;98989.91;5074353;28;20206;-49
2023/03/28 14:24:10;;;;;;;3.90;2.80;;;;;;;10.04;36.84;98984.78;5071544;28;20231;-48
2023/03/28 14:27:22;;;;;;;5.30;3.50;;;;;;;10.13;37.36;98979.28;5070744;28;20192;-48
2023/03/28 14:30:31;;;;;;;3.40;3.07;;;;;;;10.08;37.02;98981.16;5071794;28;20200;-48
2023/03/28 14:33:45;;;;;;;2.90;2.70;;;;;;;10.04;37.14;98984.78;5091702;28;20210;-49
2023/03/28 14:36:37;;;;;;;4.73;3.17;;;;;;;10.15;37.18;98998.22;5092055;28;20235;-49
2023/03/28 14:39:28;;;;;;;9.90;6.83;;;;;;;10.26;37.25;98984.06;5090444;28;20211;-49
2023/03/28 14:42:23;;;;;;;3.40;3.10;;;;;;;10.32;37.66;98994.19;5090436;28;20658;-48
2023/03/28 14:45:21;;;;;;;3.20;2.90;;;;;;;10.25;36.46;99003.13;5091531;28;20308;-49
2023/03/28 14:51:12;;;;;;;7.50;5.90;;;;;;;10.33;36.11;99008.88;5091070;28;20199;-49
2023/03/28 15:09:06;;;;;;;2.80;2.50;;;;;;;10.29;35.60;99030.63;5089191;28;20268;-49
2023/03/28 15:11:59;;;;;;;3.83;3.30;;;;;;;10.25;35.62;99035.09;5088898;28;20195;-48
2023/03/28 15:14:45;;;;;;;3.20;2.90;;;;;;;10.16;35.79;99051.75;5090824;28;20203;-47
2023/03/28 15:17:42;;;;;;;3.63;3.03;;;;;;;10.06;35.41;99049.53;5090809;28;20683;-47
2023/03/28 15:23:45;;;;;;;3.10;2.80;;;;;;;9.80;36.71;99050.44;5089769;28;20348;-47
2023/03/28 15:26:38;;;;;;;3.57;2.80;;;;;;;9.73;36.62;99082.59;5090236;28;20207;-47
2023/03/28 15:29:16;;;;;;;3.00;2.70;;;;;;;9.70;36.20;99087.91;5087268;28;20245;-47
2023/03/28 15:32:03;;;;;;;3.57;2.67;;;;;;;9.78;37.46;99088.50;5088277;28;20222;-47
2023/03/28 15:38:24;;;;;;;2.90;2.70;;;;;;;9.67;37.30;99098.38;5088696;28;20274;-48
2023/03/28 15:41:30;;;;;;;3.67;3.33;;;;;;;9.66;36.88;99087.16;5090313;28;20211;-46
2023/03/28 15:47:25;;;;;;;2.93;2.60;;;;;;;9.42;36.65;99087.91;5089849;28;20187;-48
2023/03/28 15:50:08;;;;;;;2.53;2.33;;;;;;;9.45;36.86;99118.91;5089258;28;20194;-48
2023/03/28 15:53:09;;;;;;;3.53;2.33;;;;;;;9.41;37.79;99109.53;5089504;28;20206;-48
2023/03/28 15:56:06;;;;;;;2.73;2.53;;;;;;;9.43;38.84;99131.91;5090279;28;20221;-48
2023/03/28 15:59:06;;;;;;;6.27;3.10;;;;;;;9.38;38.93;99136.38;5117829;27;20225;-49
2023/03/28 16:02:08;;;;;;;2.87;2.67;;;;;;;9.28;37.91;99140.13;5130603;27;20190;-49
2023/03/28 16:05:29;;;;;;;4.80;3.00;;;;;;;9.21;38.46;99140.38;5129685;27;20204;-48
2023/03/28 16:11:28;;;;;;;9.63;3.60;;;;;;;9.00;39.12;99139.25;5128719;27;20276;-50
2023/03/28 16:14:02;;;;;;;10.23;2.60;;;;;;;8.94;40.04;99145.44;5121577;27;20246;-48
2023/03/28 16:17:06;;;;;;;3.63;2.07;;;;;;;8.85;39.68;99139.66;5129966;27;20600;-48
2023/03/28 16:19:48;;;;;;;8.77;3.00;;;;;;;8.81;40.33;99141.47;5128741;27;20903;-47
2023/03/28 16:22:31;;;;;;;2.93;2.20;;;;;;;8.76;39.47;99145.09;5129297;27;20307;-48
2023/03/28 16:25:15;;;;;;;3.10;2.67;;;;;;;8.70;40.46;99143.50;5129346;27;20273;-48
2023/03/28 16:28:22;;;;;;;7.97;2.60;;;;;;;8.57;40.21;99163.72;5127671;27;20213;-47
2023/03/28 16:31:28;;;;;;;2.70;2.50;;;;;;;8.59;40.17;99166.22;5129576;27;20198;-49
2023/03/28 16:34:07;;;;;;;2.60;2.40;;;;;;;8.54;40.11;99186.22;5129977;27;20193;-48
2023/03/28 16:36:40;;;;;;;3.33;2.87;;;;;;;8.55;41.46;99186.19;5129655;27;20573;-48
2023/03/28 16:39:25;;;;;;;4.17;3.30;;;;;;;8.48;42.42;99189.78;5129567;27;20624;-48
2023/03/28 16:42:21;;;;;;;2.70;2.50;;;;;;;8.37;42.46;99199.56;5129568;27;20197;-48
2023/03/28 16:44:55;;;;;;;3.20;2.90;;;;;;;8.27;42.63;99196.31;5128986;27;20204;-49
2023/03/28 16:47:29;;;;;;;2.30;2.20;;;;;;;8.24;43.42;99200.75;5128410;27;20205;-48
2023/03/28 16:52:56;;;;;;;2.47;2.20;;;;;;;8.24;44.23;99205.91;5126850;27;20198;-48
2023/03/28 16:55:24;;;;;;;2.50;2.37;;;;;;;8.17;43.87;99209.50;5125411;27;20190;-46
2023/03/28 16:58:13;;;;;;;2.47;2.27;;;;;;;8.13;42.64;99213.03;5128411;28;20229;-46
2023/03/28 17:01:24;;;;;;;2.10;2.00;;;;;;;8.07;42.87;99216.63;5129060;28;20217;-48
2023/03/28 17:04:15;;;;;;;2.80;2.60;;;;;;;8.05;43.75;99225.31;5128955;28;20200;-51
2023/03/28 17:07:07;;;;;;;2.53;2.33;;;;;;;8.06;43.17;99220.09;5129208;28;20210;-47
2023/03/28 17:09:49;;;;;;;2.53;2.33;;;;;;;8.10;42.40;99228.66;5128827;28;20197;-47
2023/03/28 17:12:28;;;;;;;2.97;2.30;;;;;;;8.15;41.34;99237.13;5127866;28;20209;-48